Time;durP1;ratioP1;P1;durP2;ratioP2;P2;SDS_P1;SDS_P2;PMS_P1;PMS_P2;Temp;Humidity;BMP_temperature;BMP_pressure;BME280_temperature;BME280_humidity;BME280_pressure;Samples;Min_cycle;Max_cycle;Signal;HPM_P1;HPM_P2
2022/07/28 00:02:10;;;;;;;;;;;614.80;2201.60;;;;;;5110735;28;19973;-54
2022/07/28 00:04:36;;;;;;;;;;;614.80;2176.00;;;;;;5111102;28;20006;-54
2022/07/28 00:07:01;;;;;;;;;;;614.80;2150.40;;;;;;5110954;28;20284;-54
2022/07/28 00:09:27;;;;;;;;;;;614.80;2150.40;;;;;;5110907;28;19954;-54
2022/07/28 00:11:53;;;;;;;;;;;614.80;2176.00;;;;;;5110831;28;20388;-58
2022/07/28 00:14:20;;;;;;;;;;;614.90;2150.40;;;;;;5110817;28;19916;-55
2022/07/28 00:16:45;;;;;;;;;;;614.90;2150.40;;;;;;5110722;28;20361;-56
2022/07/28 00:19:11;;;;;;;;;;;614.90;2176.00;;;;;;5110861;28;19908;-53
2022/07/28 00:21:37;;;;;;;;;;;614.90;2176.00;;;;;;5110703;28;19908;-54
2022/07/28 00:24:02;;;;;;;;;;;614.90;2176.00;;;;;;5110795;28;19923;-54
2022/07/28 00:26:28;;;;;;;;;;;615.00;2176.00;;;;;;5111191;28;19914;-53
2022/07/28 00:28:53;;;;;;;;;;;615.00;2176.00;;;;;;5114558;28;19908;-54
2022/07/28 00:31:19;;;;;;;;;;;615.00;2176.00;;;;;;5114360;28;19912;-54
2022/07/28 00:33:44;;;;;;;;;;;615.00;2176.00;;;;;;5114535;28;19922;-56
2022/07/28 00:36:10;;;;;;;;;;;615.00;2176.00;;;;;;5114204;28;19915;-55
2022/07/28 00:38:36;;;;;;;;;;;615.00;2176.00;;;;;;5114420;28;19935;-55
2022/07/28 00:41:11;;;;;;;;;;;614.90;2176.00;;;;;;5114205;28;20010;-53
2022/07/28 00:43:43;;;;;;;;;;;615.00;2176.00;;;;;;5114079;28;19920;-56
2022/07/28 00:46:09;;;;;;;;;;;614.90;2176.00;;;;;;5114039;28;19920;-57
2022/07/28 00:48:54;;;;;;;;;;;615.00;2176.00;;;;;;5111249;28;19916;-58
2022/07/28 00:51:20;;;;;;;;;;;614.90;2176.00;;;;;;5119727;27;20375;-55
2022/07/28 00:53:46;;;;;;;;;;;615.00;2176.00;;;;;;5133729;27;19907;-55
2022/07/28 00:56:12;;;;;;;;;;;615.00;2176.00;;;;;;5134213;27;19907;-59
2022/07/28 00:58:38;;;;;;;;;;;615.00;2176.00;;;;;;5133404;27;19907;-55
2022/07/28 01:01:07;;;;;;;;;;;615.00;2176.00;;;;;;5130885;27;19926;-56
2022/07/28 01:03:34;;;;;;;;;;;615.00;2176.00;;;;;;5130359;27;20274;-56
2022/07/28 01:06:02;;;;;;;;;;;615.00;2176.00;;;;;;5118911;27;19916;-58
2022/07/28 01:08:37;;;;;;;;;;;615.00;2176.00;;;;;;5113879;27;19908;-56
2022/07/28 01:11:10;;;;;;;;;;;615.00;2176.00;;;;;;5132553;27;19969;-58
2022/07/28 01:13:42;;;;;;;;;;;614.90;2176.00;;;;;;5133557;27;20364;-55
2022/07/28 01:16:07;;;;;;;;;;;614.90;2201.60;;;;;;5128113;27;19907;-58
2022/07/28 01:18:42;;;;;;;;;;;614.90;2176.00;;;;;;5133412;27;19933;-58
2022/07/28 01:21:10;;;;;;;;;;;614.90;2176.00;;;;;;5133167;27;20007;-57
2022/07/28 01:23:55;;;;;;;;;;;614.90;2201.60;;;;;;5127295;27;20288;-54
2022/07/28 01:26:27;;;;;;;;;;;614.90;2201.60;;;;;;5113447;28;20369;-56
2022/07/28 01:29:02;;;;;;;;;;;614.90;2201.60;;;;;;5113419;28;19930;-56
2022/07/28 01:31:31;;;;;;;;;;;614.90;2227.20;;;;;;5113096;28;19984;-58
2022/07/28 01:34:03;;;;;;;;;;;614.90;2201.60;;;;;;5112965;28;19908;-57
2022/07/28 01:36:31;;;;;;;;;;;614.80;2252.80;;;;;;5112808;28;20288;-58
2022/07/28 01:38:57;;;;;;;;;;;614.70;2252.80;;;;;;5112569;28;19920;-58
2022/07/28 01:41:26;;;;;;;;;;;614.70;2252.80;;;;;;5112925;28;20385;-58
2022/07/28 01:44:00;;;;;;;;;;;614.70;2278.40;;;;;;5113102;28;19963;-58
2022/07/28 01:46:26;;;;;;;;;;;614.70;2278.40;;;;;;5112579;28;19912;-55
2022/07/28 01:48:52;;;;;;;;;;;614.70;2278.40;;;;;;5112976;28;19914;-57
2022/07/28 01:51:19;;;;;;;;;;;614.70;2278.40;;;;;;5112578;28;19912;-58
2022/07/28 01:53:45;;;;;;;;;;;614.60;2304.00;;;;;;5112759;28;19908;-56
2022/07/28 01:56:11;;;;;;;;;;;614.50;2304.00;;;;;;5112806;28;19960;-57
2022/07/28 01:58:37;;;;;;;;;;;614.60;2355.20;;;;;;5112592;28;19990;-57
2022/07/28 02:01:03;;;;;;;;;;;614.50;2432.00;;;;;;5112643;28;19926;-58
2022/07/28 02:03:30;;;;;;;;;;;614.50;2432.00;;;;;;5112437;28;19942;-55
2022/07/28 02:05:57;;;;;;;;;;;589.70;2432.00;;;;;;5112340;28;19915;-56
2022/07/28 02:08:23;;;;;;;;;;;589.70;2432.00;;;;;;5112683;28;19915;-55
2022/07/28 02:13:35;;;;;;;;;;;589.70;2432.00;;;;;;5112765;28;19919;-55
2022/07/28 02:16:03;;;;;;;;;;;589.70;2432.00;;;;;;5112455;28;19908;-55
2022/07/28 02:18:29;;;;;;;;;;;589.70;2432.00;;;;;;5112133;28;19912;-58
2022/07/28 02:20:56;;;;;;;;;;;589.40;2432.00;;;;;;5111935;28;20029;-56
2022/07/28 02:23:22;;;;;;;;;;;589.40;2432.00;;;;;;5112271;28;19977;-56
2022/07/28 02:25:49;;;;;;;;;;;589.40;2432.00;;;;;;5111923;28;19908;-57
2022/07/28 02:28:15;;;;;;;;;;;589.40;2432.00;;;;;;5112357;28;19943;-57
2022/07/28 02:30:51;;;;;;;;;;;589.50;2432.00;;;;;;5112133;28;19960;-57
2022/07/28 02:33:19;;;;;;;;;;;589.50;2432.00;;;;;;5111863;28;19908;-55
2022/07/28 02:35:48;;;;;;;;;;;589.50;2432.00;;;;;;5112038;28;19915;-56
2022/07/28 02:38:17;;;;;;;;;;;589.50;2432.00;;;;;;5111894;28;20384;-57
2022/07/28 02:40:43;;;;;;;;;;;589.30;2432.00;;;;;;5111875;28;19958;-58
2022/07/28 02:43:11;;;;;;;;;;;589.30;2432.00;;;;;;5111676;28;19967;-54
2022/07/28 02:45:41;;;;;;;;;;;589.30;2432.00;;;;;;5111695;28;20288;-57
2022/07/28 02:48:09;;;;;;;;;;;589.20;2432.00;;;;;;5111667;28;19907;-55
2022/07/28 02:50:35;;;;;;;;;;;589.30;2432.00;;;;;;5111230;28;19912;-57
2022/07/28 02:53:02;;;;;;;;;;;589.30;2432.00;;;;;;5111895;28;20318;-57
2022/07/28 02:55:28;;;;;;;;;;;589.30;2432.00;;;;;;5111598;28;19931;-56
2022/07/28 02:57:55;;;;;;;;;;;589.30;2432.00;;;;;;5111718;28;19907;-55
2022/07/28 03:00:20;;;;;;;;;;;589.30;2432.00;;;;;;5111410;28;20057;-56
2022/07/28 03:02:46;;;;;;;;;;;589.40;2432.00;;;;;;5111365;28;20401;-55
2022/07/28 03:05:15;;;;;;;;;;;589.40;2432.00;;;;;;5111793;28;19938;-57
2022/07/28 03:07:41;;;;;;;;;;;589.30;2432.00;;;;;;5111472;28;20478;-57
2022/07/28 03:10:06;;;;;;;;;;;589.30;2432.00;;;;;;5111305;28;19953;-57
2022/07/28 03:12:32;;;;;;;;;;;589.30;2432.00;;;;;;5111528;28;19951;-57
2022/07/28 03:14:58;;;;;;;;;;;589.20;2432.00;;;;;;5111330;28;19908;-56
2022/07/28 03:17:23;;;;;;;;;;;589.20;2432.00;;;;;;5111364;28;20340;-57
2022/07/28 03:19:49;;;;;;;;;;;589.30;2432.00;;;;;;5111309;28;19907;-55
2022/07/28 03:22:14;;;;;;;;;;;589.20;2432.00;;;;;;5111236;28;19962;-54
2022/07/28 03:24:50;;;;;;;;;;;589.10;2432.00;;;;;;5111123;28;19914;-54
2022/07/28 03:27:27;;;;;;;;;;;589.30;2432.00;;;;;;5111121;28;19908;-57
2022/07/28 03:30:13;;;;;;;;;;;589.30;2432.00;;;;;;5111189;28;20280;-57
2022/07/28 03:32:41;;;;;;;;;;;589.30;2432.00;;;;;;5110342;28;19912;-57
2022/07/28 03:35:07;;;;;;;;;;;589.20;2432.00;;;;;;5110950;28;20014;-57
2022/07/28 03:37:37;;;;;;;;;;;589.20;2432.00;;;;;;5111347;28;19959;-57
2022/07/28 03:40:03;;;;;;;;;;;589.20;2432.00;;;;;;5111294;28;19915;-57
2022/07/28 03:42:29;;;;;;;;;;;589.10;2432.00;;;;;;5110659;28;19924;-57
2022/07/28 03:44:55;;;;;;;;;;;589.10;2432.00;;;;;;5111223;28;20266;-56
2022/07/28 03:47:21;;;;;;;;;;;589.10;2432.00;;;;;;5111129;28;19908;-57
2022/07/28 03:49:47;;;;;;;;;;;589.20;2432.00;;;;;;5110904;28;19908;-56
2022/07/28 03:52:13;;;;;;;;;;;589.20;2432.00;;;;;;5111246;28;20003;-57
2022/07/28 03:54:39;;;;;;;;;;;589.10;2432.00;;;;;;5110970;28;20268;-54
2022/07/28 03:57:04;;;;;;;;;;;589.10;2432.00;;;;;;5111107;28;20363;-58
2022/07/28 03:59:30;;;;;;;;;;;589.10;2432.00;;;;;;5110929;28;19908;-55
2022/07/28 04:01:56;;;;;;;;;;;589.00;2432.00;;;;;;5113796;28;20315;-55
2022/07/28 04:04:22;;;;;;;;;;;588.90;2432.00;;;;;;5115017;28;20357;-57
2022/07/28 04:06:47;;;;;;;;;;;588.80;2432.00;;;;;;5115069;28;19969;-57
2022/07/28 04:09:14;;;;;;;;;;;588.80;2432.00;;;;;;5114863;28;19911;-57
2022/07/28 04:11:40;;;;;;;;;;;588.80;2432.00;;;;;;5114576;28;20006;-53
2022/07/28 04:14:06;;;;;;;;;;;588.80;2432.00;;;;;;5114621;28;19947;-56
2022/07/28 04:16:31;;;;;;;;;;;564.10;2432.00;;;;;;5114838;28;19907;-55
2022/07/28 04:18:57;;;;;;;;;;;564.10;2432.00;;;;;;5114414;28;19912;-55
2022/07/28 04:21:22;;;;;;;;;;;564.10;2432.00;;;;;;5114561;28;19960;-54
2022/07/28 04:23:48;;;;;;;;;;;564.10;2432.00;;;;;;5114200;28;20281;-54
2022/07/28 04:26:13;;;;;;;;;;;564.00;2432.00;;;;;;5114577;28;19953;-54
2022/07/28 04:28:39;;;;;;;;;;;563.90;2432.00;;;;;;5113436;28;19919;-57
2022/07/28 04:31:05;;;;;;;;;;;563.80;2432.00;;;;;;5113680;28;20386;-58
2022/07/28 04:33:30;;;;;;;;;;;563.70;2432.00;;;;;;5113966;28;19908;-58
2022/07/28 04:35:56;;;;;;;;;;;563.70;2432.00;;;;;;5114252;28;20004;-55
2022/07/28 04:38:22;;;;;;;;;;;563.60;2432.00;;;;;;5114418;28;19914;-55
2022/07/28 04:40:47;;;;;;;;;;;563.50;2432.00;;;;;;5114084;28;19919;-54
2022/07/28 04:43:13;;;;;;;;;;;563.30;2432.00;;;;;;5114143;28;19927;-54
2022/07/28 04:45:38;;;;;;;;;;;563.20;2432.00;;;;;;5114037;28;19908;-55
2022/07/28 04:48:04;;;;;;;;;;;563.30;2432.00;;;;;;5114312;28;19915;-58
2022/07/28 04:50:30;;;;;;;;;;;563.40;2432.00;;;;;;5114117;28;19908;-57
2022/07/28 04:52:57;;;;;;;;;;;563.30;2432.00;;;;;;5113953;28;19915;-57
2022/07/28 04:55:23;;;;;;;;;;;563.40;2432.00;;;;;;5113943;28;20006;-58
2022/07/28 04:57:49;;;;;;;;;;;563.30;2432.00;;;;;;5112322;28;20015;-58
2022/07/28 05:00:14;;;;;;;;;;;563.30;2432.00;;;;;;5113212;28;20373;-56
2022/07/28 05:02:41;;;;;;;;;;;563.40;2432.00;;;;;;5112906;28;19962;-54
2022/07/28 05:05:07;;;;;;;;;;;563.40;2432.00;;;;;;5113191;28;19953;-55
2022/07/28 05:07:33;;;;;;;;;;;563.50;2432.00;;;;;;5113811;28;19984;-56
2022/07/28 05:09:58;;;;;;;;;;;563.50;2432.00;;;;;;5113502;28;20368;-54
2022/07/28 05:12:24;;;;;;;;;;;563.50;2432.00;;;;;;5112786;28;19962;-58
2022/07/28 05:14:49;;;;;;;;;;;563.60;2432.00;;;;;;5113294;28;19974;-54
2022/07/28 05:17:15;;;;;;;;;;;563.60;2432.00;;;;;;5113793;28;19907;-54
2022/07/28 05:19:40;;;;;;;;;;;563.60;2432.00;;;;;;5113493;28;20006;-55
2022/07/28 05:22:06;;;;;;;;;;;563.70;2432.00;;;;;;5113198;28;20273;-55
2022/07/28 05:24:32;;;;;;;;;;;563.70;2432.00;;;;;;5113576;28;19960;-57
2022/07/28 05:26:58;;;;;;;;;;;563.80;2432.00;;;;;;5113242;28;19911;-55
2022/07/28 05:29:23;;;;;;;;;;;563.70;2432.00;;;;;;5113265;28;19907;-54
2022/07/28 05:31:49;;;;;;;;;;;563.70;2432.00;;;;;;5113359;28;20253;-57
2022/07/28 05:34:14;;;;;;;;;;;563.70;2432.00;;;;;;5113267;28;19908;-58
2022/07/28 05:36:40;;;;;;;;;;;563.60;2432.00;;;;;;5113195;28;20007;-57
2022/07/28 05:39:06;;;;;;;;;;;563.60;2432.00;;;;;;5113182;28;20408;-58
2022/07/28 05:41:31;;;;;;;;;;;563.60;2432.00;;;;;;5112959;28;19964;-57
2022/07/28 05:43:59;;;;;;;;;;;563.50;2432.00;;;;;;5112784;28;20002;-58
2022/07/28 05:46:25;;;;;;;;;;;563.50;2432.00;;;;;;5113037;28;19912;-57
2022/07/28 05:48:51;;;;;;;;;;;563.60;2432.00;;;;;;5113061;28;19931;-58
2022/07/28 05:51:17;;;;;;;;;;;563.50;2432.00;;;;;;5112699;28;19998;-57
2022/07/28 05:53:42;;;;;;;;;;;563.60;2432.00;;;;;;5112856;28;19908;-55
2022/07/28 05:56:08;;;;;;;;;;;563.70;2432.00;;;;;;5112641;28;19912;-54
2022/07/28 05:58:34;;;;;;;;;;;563.60;2432.00;;;;;;5113004;28;19915;-54
2022/07/28 06:01:00;;;;;;;;;;;563.60;2432.00;;;;;;5112401;28;19920;-54
2022/07/28 06:03:26;;;;;;;;;;;563.60;2432.00;;;;;;5112650;28;19919;-56
2022/07/28 06:05:55;;;;;;;;;;;563.50;2432.00;;;;;;5112488;28;19908;-58
2022/07/28 06:08:23;;;;;;;;;;;563.50;2432.00;;;;;;5112426;28;20350;-56
2022/07/28 06:11:00;;;;;;;;;;;563.40;2432.00;;;;;;5112494;28;20254;-57
2022/07/28 06:13:26;;;;;;;;;;;563.30;2432.00;;;;;;5111453;28;20020;-58
2022/07/28 06:15:51;;;;;;;;;;;538.50;2406.40;;;;;;5111716;28;20010;-58
2022/07/28 06:18:17;;;;;;;;;;;538.50;2406.40;;;;;;5111799;28;19908;-55
2022/07/28 06:20:44;;;;;;;;;;;538.30;2406.40;;;;;;5112098;28;19919;-54
2022/07/28 06:23:10;;;;;;;;;;;538.30;2406.40;;;;;;5112021;28;20356;-54
2022/07/28 06:25:35;;;;;;;;;;;538.30;2406.40;;;;;;5112394;28;19908;-54
2022/07/28 06:28:04;;;;;;;;;;;538.20;2406.40;;;;;;5111933;28;20337;-57
2022/07/28 06:30:29;;;;;;;;;;;538.30;2406.40;;;;;;5111942;28;19912;-61
2022/07/28 06:32:56;;;;;;;;;;;538.20;2406.40;;;;;;5111563;28;19919;-62
2022/07/28 06:35:21;;;;;;;;;;;538.20;2406.40;;;;;;5112163;28;19931;-61
2022/07/28 06:37:48;;;;;;;;;;;538.20;2406.40;;;;;;5111889;28;20302;-61
2022/07/28 06:40:14;;;;;;;;;;;538.10;2406.40;;;;;;5111863;28;19914;-61
2022/07/28 06:42:40;;;;;;;;;;;538.00;2406.40;;;;;;5111606;28;19942;-61
2022/07/28 06:45:06;;;;;;;;;;;537.80;2406.40;;;;;;5092985;28;20365;-62
2022/07/28 06:47:31;;;;;;;;;;;537.80;2406.40;;;;;;5108567;28;19955;-63
2022/07/28 06:49:57;;;;;;;;;;;537.80;2406.40;;;;;;5111280;28;19951;-60
2022/07/28 06:52:23;;;;;;;;;;;537.80;2406.40;;;;;;5110689;28;19919;-60
2022/07/28 06:54:50;;;;;;;;;;;537.80;2406.40;;;;;;5108250;28;19915;-58
2022/07/28 06:57:16;;;;;;;;;;;537.90;2406.40;;;;;;5110965;28;19907;-62
2022/07/28 06:59:42;;;;;;;;;;;537.80;2406.40;;;;;;5109610;28;19908;-60
2022/07/28 07:02:08;;;;;;;;;;;538.00;2406.40;;;;;;5109499;28;19923;-61
2022/07/28 07:04:35;;;;;;;;;;;538.00;2406.40;;;;;;5109267;28;20285;-61
2022/07/28 07:07:01;;;;;;;;;;;538.00;2406.40;;;;;;5109645;28;19915;-61
2022/07/28 07:09:26;;;;;;;;;;;538.10;2406.40;;;;;;5109784;28;19908;-61
2022/07/28 07:11:52;;;;;;;;;;;538.10;2406.40;;;;;;5109743;28;19911;-61
2022/07/28 07:14:17;;;;;;;;;;;538.30;2406.40;;;;;;5109682;28;19912;-62
2022/07/28 07:16:43;;;;;;;;;;;538.30;2406.40;;;;;;5110226;28;19915;-61
2022/07/28 07:19:09;;;;;;;;;;;538.30;2406.40;;;;;;5110285;28;20254;-62
2022/07/28 07:21:34;;;;;;;;;;;538.40;2406.40;;;;;;5110722;28;19911;-61
2022/07/28 07:24:00;;;;;;;;;;;538.50;2406.40;;;;;;5110131;28;19922;-61
2022/07/28 07:26:25;;;;;;;;;;;538.50;2406.40;;;;;;5111263;28;19912;-60
2022/07/28 07:28:51;;;;;;;;;;;563.30;2432.00;;;;;;5111475;28;20272;-61
2022/07/28 07:31:17;;;;;;;;;;;563.40;2432.00;;;;;;5111193;28;19908;-61
2022/07/28 07:33:42;;;;;;;;;;;563.50;2432.00;;;;;;5111585;28;19911;-61
2022/07/28 07:36:08;;;;;;;;;;;563.60;2432.00;;;;;;5113070;28;19914;-62
2022/07/28 07:38:33;;;;;;;;;;;563.50;2432.00;;;;;;5115565;28;20357;-61
2022/07/28 07:40:59;;;;;;;;;;;563.50;2432.00;;;;;;5115178;28;19939;-61
2022/07/28 07:43:25;;;;;;;;;;;563.60;2432.00;;;;;;5115305;28;19966;-59
2022/07/28 07:45:51;;;;;;;;;;;563.70;2432.00;;;;;;5115492;28;19912;-61
2022/07/28 07:48:17;;;;;;;;;;;563.80;2432.00;;;;;;5115131;28;19907;-61
2022/07/28 07:50:43;;;;;;;;;;;563.80;2432.00;;;;;;5115272;28;20354;-61
2022/07/28 07:53:08;;;;;;;;;;;564.00;2432.00;;;;;;5115152;28;20365;-61
2022/07/28 07:55:34;;;;;;;;;;;564.00;2432.00;;;;;;5115204;28;19962;-61
2022/07/28 07:57:59;;;;;;;;;;;564.00;2432.00;;;;;;5115016;28;19961;-61
2022/07/28 08:00:25;;;;;;;;;;;564.00;2432.00;;;;;;5115029;28;20349;-61
2022/07/28 08:02:50;;;;;;;;;;;564.10;2432.00;;;;;;5114693;28;20037;-61
2022/07/28 08:05:16;;;;;;;;;;;588.80;2432.00;;;;;;5114826;28;19908;-61
2022/07/28 08:07:43;;;;;;;;;;;589.00;2432.00;;;;;;5114962;28;19908;-61
2022/07/28 08:10:08;;;;;;;;;;;589.00;2432.00;;;;;;5114520;28;19908;-61
2022/07/28 08:12:34;;;;;;;;;;;589.10;2432.00;;;;;;5111724;28;19920;-61
2022/07/28 08:15:00;;;;;;;;;;;589.10;2432.00;;;;;;5112549;28;19990;-61
2022/07/28 08:17:25;;;;;;;;;;;589.10;2432.00;;;;;;5112690;28;20006;-61
2022/07/28 08:19:51;;;;;;;;;;;589.00;2432.00;;;;;;5112268;28;19912;-61
2022/07/28 08:22:16;;;;;;;;;;;589.10;2432.00;;;;;;5112261;28;19908;-61
2022/07/28 08:24:42;;;;;;;;;;;589.00;2432.00;;;;;;5111987;28;20687;-61
2022/07/28 08:27:08;;;;;;;;;;;589.00;2432.00;;;;;;5112210;28;19914;-61
2022/07/28 08:29:34;;;;;;;;;;;589.10;2432.00;;;;;;5112520;28;20284;-61
2022/07/28 08:32:03;;;;;;;;;;;589.00;2432.00;;;;;;5112163;28;20007;-62
2022/07/28 08:34:29;;;;;;;;;;;589.20;2432.00;;;;;;5112194;28;19919;-60
2022/07/28 08:36:55;;;;;;;;;;;589.20;2432.00;;;;;;5111851;28;19912;-61
2022/07/28 08:39:21;;;;;;;;;;;589.10;2432.00;;;;;;5112023;28;20368;-61
2022/07/28 08:41:54;;;;;;;;;;;589.10;2432.00;;;;;;5111934;28;20395;-61
2022/07/28 08:44:23;;;;;;;;;;;589.20;2432.00;;;;;;5111955;28;19970;-61
2022/07/28 08:46:48;;;;;;;;;;;589.40;2432.00;;;;;;5111099;28;19976;-61
2022/07/28 08:49:14;;;;;;;;;;;589.60;2432.00;;;;;;5111645;28;20257;-60
2022/07/28 08:51:40;;;;;;;;;;;614.50;2432.00;;;;;;5111393;28;19912;-61
2022/07/28 08:54:07;;;;;;;;;;;614.80;2432.00;;;;;;5111301;28;20021;-60
2022/07/28 08:56:34;;;;;;;;;;;615.20;2432.00;;;;;;5111914;27;19908;-60
2022/07/28 08:59:01;;;;;;;;;;;640.20;2432.00;;;;;;5110859;28;19912;-60
2022/07/28 09:01:28;;;;;;;;;;;640.60;2432.00;;;;;;5112599;28;19972;-62
2022/07/28 09:03:53;;;;;;;;;;;665.60;2432.00;;;;;;5113313;28;19920;-60
2022/07/28 09:06:20;;;;;;;;;;;665.90;2432.00;;;;;;5112743;28;19912;-61
2022/07/28 09:08:45;;;;;;;;;;;666.40;2432.00;;;;;;5112794;28;19908;-60
2022/07/28 09:11:11;;;;;;;;;;;666.50;2432.00;;;;;;5112835;28;20418;-61
2022/07/28 09:13:37;;;;;;;;;;;691.30;2432.00;;;;;;5112686;28;19955;-60
2022/07/28 09:16:02;;;;;;;;;;;691.40;2432.00;;;;;;5112871;28;20315;-62
2022/07/28 09:18:28;;;;;;;;;;;691.70;2432.00;;;;;;5112602;28;19962;-60
2022/07/28 09:20:54;;;;;;;;;;;691.70;2432.00;;;;;;5112906;28;19977;-61
2022/07/28 09:23:19;;;;;;;;;;;691.70;2432.00;;;;;;5112450;28;19923;-60
2022/07/28 09:25:45;;;;;;;;;;;691.90;2432.00;;;;;;5112513;28;19912;-60
2022/07/28 09:28:12;;;;;;;;;;;691.90;2432.00;;;;;;5112922;28;19952;-60
2022/07/28 09:30:40;;;;;;;;;;;692.10;2432.00;;;;;;5112740;28;19915;-60
2022/07/28 09:33:13;;;;;;;;;;;716.90;2432.00;;;;;;5110417;28;20368;-61
2022/07/28 09:35:43;;;;;;;;;;;717.10;2380.80;;;;;;5113047;28;20293;-61
2022/07/28 09:38:08;;;;;;;;;;;717.40;2355.20;;;;;;5112860;28;19908;-62
2022/07/28 09:40:34;;;;;;;;;;;717.30;2406.40;;;;;;5112954;28;19976;-61
2022/07/28 09:42:59;;;;;;;;;;;717.50;2329.60;;;;;;5112824;28;19920;-61
2022/07/28 09:45:28;;;;;;;;;;;742.40;2304.00;;;;;;5113029;28;19911;-61
2022/07/28 09:48:06;;;;;;;;;;;742.40;2278.40;;;;;;5113051;28;19908;-61
2022/07/28 09:50:32;;;;;;;;;;;742.40;2304.00;;;;;;5113208;28;19908;-61
2022/07/28 09:53:00;;;;;;;;;;;742.60;2252.80;;;;;;5112683;28;20273;-61
2022/07/28 09:55:26;;;;;;;;;;;742.80;2201.60;;;;;;5112781;28;19911;-61
2022/07/28 09:57:53;;;;;;;;;;;742.90;2227.20;;;;;;5112712;28;20349;-61
2022/07/28 10:00:30;;;;;;;;;;;743.00;2176.00;;;;;;5112107;28;20272;-61
2022/07/28 10:02:55;;;;;;;;;;;743.00;2176.00;;;;;;5112586;28;20007;-61
2022/07/28 10:05:21;;;;;;;;;;;743.30;2150.40;;;;;;5112485;28;19939;-61
2022/07/28 10:07:48;;;;;;;;;;;743.30;2201.60;;;;;;5112518;28;19961;-61
2022/07/28 10:10:18;;;;;;;;;;;768.10;2124.80;;;;;;5112641;28;19908;-60
2022/07/28 10:12:44;;;;;;;;;;;768.30;2176.00;;;;;;5112449;28;20010;-61
2022/07/28 10:17:56;;;;;;;;;;;768.40;2048.00;;;;;;5112862;28;19954;-61
2022/07/28 10:20:21;;;;;;;;;;;768.60;2022.40;;;;;;5112364;28;19908;-61
2022/07/28 10:22:47;;;;;;;;;;;768.60;1945.60;;;;;;5112055;28;19956;-61
2022/07/28 10:25:13;;;;;;;;;;;768.30;1996.80;;;;;;5112378;28;19907;-61
2022/07/28 10:27:40;;;;;;;;;;;768.10;1996.80;;;;;;5112105;28;20246;-62
2022/07/28 10:30:06;;;;;;;;;;;768.10;1971.20;;;;;;5112208;28;19908;-61
2022/07/28 10:32:37;;;;;;;;;;;743.30;1945.60;;;;;;5112443;28;19932;-61
2022/07/28 10:35:03;;;;;;;;;;;743.30;1868.80;;;;;;5111998;28;19908;-61
2022/07/28 10:37:30;;;;;;;;;;;743.20;1868.80;;;;;;5111943;28;19918;-61
2022/07/28 10:40:06;;;;;;;;;;;743.20;1868.80;;;;;;5112048;28;19908;-62
2022/07/28 10:42:32;;;;;;;;;;;768.10;1868.80;;;;;;5111864;28;19931;-60
2022/07/28 10:44:58;;;;;;;;;;;768.40;1843.20;;;;;;5111764;28;19912;-61
2022/07/28 10:47:27;;;;;;;;;;;768.40;1868.80;;;;;;5112085;28;19915;-60
2022/07/28 10:49:53;;;;;;;;;;;768.20;1792.00;;;;;;5112012;28;19914;-62
2022/07/28 10:52:19;;;;;;;;;;;768.60;1792.00;;;;;;5111689;28;19954;-61
2022/07/28 10:54:56;;;;;;;;;;;768.90;1766.40;;;;;;5111700;28;19908;-61
2022/07/28 10:57:22;;;;;;;;;;;768.70;1792.00;;;;;;5111623;28;19908;-61
2022/07/28 11:00:00;;;;;;;;;;;768.70;1740.80;;;;;;5111495;28;19908;-60
2022/07/28 11:02:44;;;;;;;;;;;768.80;1792.00;;;;;;5111420;28;19975;-61
2022/07/28 11:05:30;;;;;;;;;;;768.70;1740.80;;;;;;5111453;28;19948;-61
2022/07/28 11:07:57;;;;;;;;;;;768.50;1792.00;;;;;;5110975;28;20196;-61
2022/07/28 11:10:23;;;;;;;;;;;768.80;1766.40;;;;;;5110985;28;19908;-61
2022/07/28 11:12:52;;;;;;;;;;;793.60;1715.20;;;;;;5111449;28;19912;-61
2022/07/28 11:15:32;;;;;;;;;;;768.80;1561.60;;;;;;5111447;28;20376;-61
2022/07/28 11:18:08;;;;;;;;;;;768.90;1638.40;;;;;;5111280;28;19907;-61
2022/07/28 11:20:51;;;;;;;;;;;793.70;1689.60;;;;;;5111465;28;20369;-61
2022/07/28 11:23:36;;;;;;;;;;;794.00;1689.60;;;;;;5111127;28;20377;-61
2022/07/28 11:26:19;;;;;;;;;;;793.80;1612.80;;;;;;5111441;28;19940;-61
2022/07/28 11:29:04;;;;;;;;;;;768.60;1664.00;;;;;;5111436;28;19918;-61
2022/07/28 11:31:45;;;;;;;;;;;793.60;1689.60;;;;;;5111346;28;20283;-61
2022/07/28 11:34:21;;;;;;;;;;;793.80;1715.20;;;;;;5111167;28;19935;-61
2022/07/28 11:36:56;;;;;;;;;;;793.70;1612.80;;;;;;5111134;28;19908;-61
2022/07/28 11:39:21;;;;;;;;;;;793.90;1587.20;;;;;;5111238;28;19912;-61
2022/07/28 11:41:47;;;;;;;;;;;768.50;1536.00;;;;;;5110918;28;19964;-61
2022/07/28 11:44:23;;;;;;;;;;;768.80;1612.80;;;;;;5111352;28;19927;-61
2022/07/28 11:46:48;;;;;;;;;;;768.90;1536.00;;;;;;5111095;28;19907;-61
2022/07/28 11:49:15;;;;;;;;;;;768.80;1510.40;;;;;;5111269;28;20262;-61
2022/07/28 11:52:01;;;;;;;;;;;768.70;1536.00;;;;;;5111000;28;20273;-61
2022/07/28 11:54:26;;;;;;;;;;;768.70;1561.60;;;;;;5110724;28;19908;-61
2022/07/28 11:56:58;;;;;;;;;;;768.40;1587.20;;;;;;5111172;28;19960;-61
2022/07/28 11:59:23;;;;;;;;;;;768.40;1612.80;;;;;;5111186;28;20425;-61
2022/07/28 12:01:52;;;;;;;;;;;768.40;1587.20;;;;;;5110818;28;19920;-61
2022/07/28 12:04:18;;;;;;;;;;;768.20;1561.60;;;;;;5110803;28;19916;-62
2022/07/28 12:06:45;;;;;;;;;;;768.10;1587.20;;;;;;5111243;28;19908;-61
2022/07/28 12:09:16;;;;;;;;;;;768.10;1587.20;;;;;;5110442;28;20380;-61
2022/07/28 12:11:41;;;;;;;;;;;768.10;1587.20;;;;;;5110933;28;19918;-61
2022/07/28 12:14:08;;;;;;;;;;;743.30;1587.20;;;;;;5110710;28;19912;-62
2022/07/28 12:16:34;;;;;;;;;;;768.10;1612.80;;;;;;5110902;28;20353;-61
2022/07/28 12:19:00;;;;;;;;;;;768.10;1612.80;;;;;;5110709;28;19908;-61
2022/07/28 12:21:36;;;;;;;;;;;768.10;1638.40;;;;;;5111696;28;19918;-61
2022/07/28 12:24:01;;;;;;;;;;;768.10;1638.40;;;;;;5114274;28;19916;-61
2022/07/28 12:26:34;;;;;;;;;;;743.30;1612.80;;;;;;5114342;28;19907;-61
2022/07/28 12:29:00;;;;;;;;;;;768.10;1587.20;;;;;;5114263;28;19930;-61
2022/07/28 12:31:31;;;;;;;;;;;768.30;1612.80;;;;;;5114479;28;19919;-61
2022/07/28 12:34:00;;;;;;;;;;;768.40;1587.20;;;;;;5114126;28;20342;-61
2022/07/28 12:36:27;;;;;;;;;;;768.40;1561.60;;;;;;5114421;28;20357;-61
2022/07/28 12:38:53;;;;;;;;;;;768.40;1561.60;;;;;;5114199;28;19908;-61
2022/07/28 12:41:19;;;;;;;;;;;768.40;1561.60;;;;;;5113945;28;20084;-62
2022/07/28 12:43:49;;;;;;;;;;;768.40;1536.00;;;;;;5114382;28;19920;-59
2022/07/28 12:46:27;;;;;;;;;;;768.40;1510.40;;;;;;5114220;28;19911;-61
2022/07/28 12:48:56;;;;;;;;;;;768.20;1561.60;;;;;;5114238;28;19908;-60
2022/07/28 12:51:51;;;;;;;;;;;768.30;1561.60;;;;;;5114209;28;20000;-60
2022/07/28 12:54:16;;;;;;;;;;;768.30;1484.80;;;;;;5011324;28;19916;-60
2022/07/28 12:56:45;;;;;;;;;;;743.30;1484.80;;;;;;5011604;28;19909;-60
2022/07/28 12:59:13;;;;;;;;;;;768.40;1536.00;;;;;;5011340;28;19909;-60
2022/07/28 13:01:45;;;;;;;;;;;768.40;1484.80;;;;;;5011194;28;20363;-61
2022/07/28 13:04:10;;;;;;;;;;;768.50;1536.00;;;;;;5011290;28;19918;-61
2022/07/28 13:06:36;;;;;;;;;;;768.70;1561.60;;;;;;5011346;28;19917;-60
2022/07/28 13:09:02;;;;;;;;;;;793.60;1587.20;;;;;;5011434;28;19909;-61
2022/07/28 13:11:31;;;;;;;;;;;794.00;1510.40;;;;;;5010913;28;19913;-61
2022/07/28 13:13:56;;;;;;;;;;;768.90;1484.80;;;;;;5011352;28;20438;-61
2022/07/28 13:16:23;;;;;;;;;;;768.40;1510.40;;;;;;5011155;28;19916;-60
2022/07/28 13:18:52;;;;;;;;;;;768.50;1484.80;;;;;;5010897;28;19916;-61
2022/07/28 13:21:36;;;;;;;;;;;793.90;1536.00;;;;;;5011040;28;19964;-61
2022/07/28 13:24:02;;;;;;;;;;;794.20;1510.40;;;;;;5007908;28;19984;-61
2022/07/28 13:26:27;;;;;;;;;;;794.40;1484.80;;;;;;5008513;28;19969;-61
2022/07/28 13:29:00;;;;;;;;;;;794.30;1459.20;;;;;;5008565;28;20356;-60
2022/07/28 13:31:26;;;;;;;;;;;794.20;1484.80;;;;;;5092691;28;19938;-61
2022/07/28 13:33:51;;;;;;;;;;;794.40;1484.80;;;;;;5110503;28;20354;-60
2022/07/28 13:36:17;;;;;;;;;;;819.20;1459.20;;;;;;5110497;28;19915;-60
2022/07/28 13:38:42;;;;;;;;;;;819.30;1484.80;;;;;;5111027;28;19908;-61
2022/07/28 13:41:08;;;;;;;;;;;794.50;1459.20;;;;;;5110634;28;19918;-61
2022/07/28 13:43:33;;;;;;;;;;;794.40;1484.80;;;;;;5110875;28;19923;-61
2022/07/28 13:45:59;;;;;;;;;;;794.30;1484.80;;;;;;5110703;28;20315;-61
2022/07/28 13:48:25;;;;;;;;;;;794.10;1510.40;;;;;;5110657;28;19951;-60
2022/07/28 13:50:50;;;;;;;;;;;794.00;1510.40;;;;;;5110346;28;19907;-60